sensor_id;sensor_type;location;lat;lon;timestamp;pressure;altitude;pressure_sealevel;temperature;humidity
80927;BME280;70385;44.538;18.532;2024-03-25T00:00:14;98702.59;;;0.62;100.00
80927;BME280;70385;44.538;18.532;2024-03-25T00:02:41;98699.16;;;0.63;100.00
80927;BME280;70385;44.538;18.532;2024-03-25T00:05:08;98702.66;;;0.59;100.00
80927;BME280;70385;44.538;18.532;2024-03-25T00:07:37;98699.28;;;0.54;100.00
80927;BME280;70385;44.538;18.532;2024-03-25T00:10:04;98703.59;;;0.52;100.00
80927;BME280;70385;44.538;18.532;2024-03-25T00:12:34;98704.38;;;0.57;100.00
80927;BME280;70385;44.538;18.532;2024-03-25T00:15:00;98701.84;;;0.55;100.00
80927;BME280;70385;44.538;18.532;2024-03-25T00:17:26;98695.66;;;0.67;100.00
80927;BME280;70385;44.538;18.532;2024-03-25T00:19:52;98692.22;;;0.67;100.00
80927;BME280;70385;44.538;18.532;2024-03-25T00:22:19;98688.00;;;0.64;100.00
80927;BME280;70385;44.538;18.532;2024-03-25T00:24:46;98694.69;;;0.73;100.00
80927;BME280;70385;44.538;18.532;2024-03-25T00:27:15;98687.78;;;0.75;100.00
80927;BME280;70385;44.538;18.532;2024-03-25T00:29:41;98683.47;;;0.78;100.00
80927;BME280;70385;44.538;18.532;2024-03-25T00:32:08;98678.28;;;0.81;100.00
80927;BME280;70385;44.538;18.532;2024-03-25T00:34:35;98682.53;;;0.82;100.00
80927;BME280;70385;44.538;18.532;2024-03-25T00:37:01;98689.25;;;0.91;100.00
80927;BME280;70385;44.538;18.532;2024-03-25T00:39:27;98690.06;;;0.93;100.00
80927;BME280;70385;44.538;18.532;2024-03-25T00:41:53;98686.66;;;0.93;100.00
80927;BME280;70385;44.538;18.532;2024-03-25T00:44:19;98690.84;;;1.00;100.00
80927;BME280;70385;44.538;18.532;2024-03-25T00:46:45;98691.63;;;1.03;100.00
80927;BME280;70385;44.538;18.532;2024-03-25T00:49:12;98685.69;;;1.00;100.00
80927;BME280;70385;44.538;18.532;2024-03-25T00:51:38;98682.25;;;0.99;100.00
80927;BME280;70385;44.538;18.532;2024-03-25T00:54:04;98686.41;;;1.08;100.00
80927;BME280;70385;44.538;18.532;2024-03-25T00:56:31;98678.81;;;1.00;100.00
80927;BME280;70385;44.538;18.532;2024-03-25T00:59:00;98682.88;;;1.12;100.00
80927;BME280;70385;44.538;18.532;2024-03-25T01:01:29;98684.56;;;1.13;100.00
80927;BME280;70385;44.538;18.532;2024-03-25T01:03:58;98680.38;;;1.09;100.00
80927;BME280;70385;44.538;18.532;2024-03-25T01:06:25;98689.72;;;1.16;100.00
80927;BME280;70385;44.538;18.532;2024-03-25T01:08:50;98684.38;;;1.25;100.00
80927;BME280;70385;44.538;18.532;2024-03-25T01:11:17;98686.03;;;1.28;100.00
80927;BME280;70385;44.538;18.532;2024-03-25T01:13:44;98672.41;;;1.23;100.00
80927;BME280;70385;44.538;18.532;2024-03-25T01:16:10;98686.19;;;1.20;100.00
80927;BME280;70385;44.538;18.532;2024-03-25T01:18:36;98685.41;;;1.16;100.00
80927;BME280;70385;44.538;18.532;2024-03-25T01:21:03;98689.53;;;1.25;100.00
80927;BME280;70385;44.538;18.532;2024-03-25T01:23:31;98683.53;;;1.25;100.00
80927;BME280;70385;44.538;18.532;2024-03-25T01:25:57;98680.09;;;1.24;100.00
80927;BME280;70385;44.538;18.532;2024-03-25T01:28:23;98681.09;;;1.17;100.00
80927;BME280;70385;44.538;18.532;2024-03-25T01:30:50;98675.84;;;1.21;100.00
80927;BME280;70385;44.538;18.532;2024-03-25T01:33:16;98672.38;;;1.24;100.00
80927;BME280;70385;44.538;18.532;2024-03-25T01:35:42;98669.72;;;1.27;100.00
80927;BME280;70385;44.538;18.532;2024-03-25T01:38:08;98656.00;;;1.27;100.00
80927;BME280;70385;44.538;18.532;2024-03-25T01:40:34;98658.53;;;1.28;100.00
80927;BME280;70385;44.538;18.532;2024-03-25T01:43:02;98666.31;;;1.27;100.00
80927;BME280;70385;44.538;18.532;2024-03-25T01:45:30;98670.53;;;1.29;100.00
80927;BME280;70385;44.538;18.532;2024-03-25T01:48:06;98675.69;;;1.29;100.00
80927;BME280;70385;44.538;18.532;2024-03-25T01:50:33;98679.09;;;1.31;100.00
80927;BME280;70385;44.538;18.532;2024-03-25T01:52:59;98681.88;;;1.20;100.00
80927;BME280;70385;44.538;18.532;2024-03-25T01:55:27;98678.47;;;1.20;100.00
80927;BME280;70385;44.538;18.532;2024-03-25T01:57:54;98680.09;;;1.24;100.00
80927;BME280;70385;44.538;18.532;2024-03-25T02:00:20;98668.31;;;1.11;100.00
80927;BME280;70385;44.538;18.532;2024-03-25T02:02:49;98679.09;;;1.31;100.00
80927;BME280;70385;44.538;18.532;2024-03-25T02:05:17;98680.00;;;1.29;100.00
80927;BME280;70385;44.538;18.532;2024-03-25T02:07:44;98679.91;;;1.33;100.00
80927;BME280;70385;44.538;18.532;2024-03-25T02:10:10;98689.41;;;1.31;100.00
80927;BME280;70385;44.538;18.532;2024-03-25T02:12:43;98693.06;;;1.19;100.00
80927;BME280;70385;44.538;18.532;2024-03-25T02:15:10;98678.72;;;1.05;100.00
80927;BME280;70385;44.538;18.532;2024-03-25T02:17:37;98694.88;;;1.13;100.00
80927;BME280;70385;44.538;18.532;2024-03-25T02:20:05;98683.72;;;1.12;100.00
80927;BME280;70385;44.538;18.532;2024-03-25T02:22:33;98694.75;;;1.22;100.00
80927;BME280;70385;44.538;18.532;2024-03-25T02:25:08;98687.78;;;1.26;100.00
80927;BME280;70385;44.538;18.532;2024-03-25T02:27:36;98688.66;;;1.26;100.00
80927;BME280;70385;44.538;18.532;2024-03-25T02:30:23;98691.25;;;1.25;100.00
80927;BME280;70385;44.538;18.532;2024-03-25T02:32:49;98692.84;;;1.30;100.00
80927;BME280;70385;44.538;18.532;2024-03-25T02:35:15;98689.31;;;1.37;100.00
80927;BME280;70385;44.538;18.532;2024-03-25T02:37:42;98685.91;;;1.35;100.00
80927;BME280;70385;44.538;18.532;2024-03-25T02:40:09;98685.91;;;1.35;100.00
80927;BME280;70385;44.538;18.532;2024-03-25T02:42:38;98696.97;;;1.40;100.00
80927;BME280;70385;44.538;18.532;2024-03-25T02:45:06;98692.66;;;1.42;100.00
80927;BME280;70385;44.538;18.532;2024-03-25T02:47:31;98696.09;;;1.41;100.00
80927;BME280;70385;44.538;18.532;2024-03-25T02:49:57;98697.94;;;1.36;100.00
80927;BME280;70385;44.538;18.532;2024-03-25T02:52:24;98706.47;;;1.38;100.00
80927;BME280;70385;44.538;18.532;2024-03-25T02:54:49;98703.94;;;1.37;100.00
80927;BME280;70385;44.538;18.532;2024-03-25T02:57:15;98704.81;;;1.34;100.00
80927;BME280;70385;44.538;18.532;2024-03-25T02:59:41;98705.66;;;1.35;100.00
80927;BME280;70385;44.538;18.532;2024-03-25T03:02:07;98704.97;;;1.27;100.00
80927;BME280;70385;44.538;18.532;2024-03-25T03:04:34;98703.16;;;1.30;100.00
80927;BME280;70385;44.538;18.532;2024-03-25T03:07:02;98707.44;;;1.31;100.00
80927;BME280;70385;44.538;18.532;2024-03-25T03:09:28;98714.47;;;1.23;100.00
80927;BME280;70385;44.538;18.532;2024-03-25T03:11:54;98704.09;;;1.26;100.00
80927;BME280;70385;44.538;18.532;2024-03-25T03:14:20;98713.47;;;1.30;100.00
80927;BME280;70385;44.538;18.532;2024-03-25T03:16:47;98715.25;;;1.27;100.00
80927;BME280;70385;44.538;18.532;2024-03-25T03:19:16;98710.91;;;1.30;100.00
80927;BME280;70385;44.538;18.532;2024-03-25T03:21:42;98703.41;;;1.18;100.00
80927;BME280;70385;44.538;18.532;2024-03-25T03:24:07;98716.25;;;1.19;100.00
80927;BME280;70385;44.538;18.532;2024-03-25T03:26:33;98719.81;;;1.11;100.00
80927;BME280;70385;44.538;18.532;2024-03-25T03:28:59;98725.81;;;1.11;100.00
80927;BME280;70385;44.538;18.532;2024-03-25T03:31:26;98732.72;;;1.11;100.00
80927;BME280;70385;44.538;18.532;2024-03-25T03:33:52;98725.84;;;1.10;100.00
80927;BME280;70385;44.538;18.532;2024-03-25T03:36:21;98739.66;;;1.06;100.00
80927;BME280;70385;44.538;18.532;2024-03-25T03:38:50;98743.19;;;1.02;100.00
80927;BME280;70385;44.538;18.532;2024-03-25T03:41:16;98744.88;;;1.03;100.00
80927;BME280;70385;44.538;18.532;2024-03-25T03:43:42;98736.28;;;1.04;100.00
80927;BME280;70385;44.538;18.532;2024-03-25T03:46:08;98740.41;;;1.12;100.00
80927;BME280;70385;44.538;18.532;2024-03-25T03:48:37;98735.19;;;1.18;100.00
80927;BME280;70385;44.538;18.532;2024-03-25T03:51:05;98732.56;;;1.20;100.00
80927;BME280;70385;44.538;18.532;2024-03-25T03:53:32;98736.81;;;1.23;100.00
80927;BME280;70385;44.538;18.532;2024-03-25T03:56:00;98740.31;;;1.20;100.00
80927;BME280;70385;44.538;18.532;2024-03-25T03:58:33;98736.75;;;1.26;100.00
80927;BME280;70385;44.538;18.532;2024-03-25T04:01:03;98740.97;;;1.30;100.00
80927;BME280;70385;44.538;18.532;2024-03-25T04:03:30;98740.03;;;1.34;100.00
80927;BME280;70385;44.538;18.532;2024-03-25T04:05:56;98740.09;;;1.31;100.00
80927;BME280;70385;44.538;18.532;2024-03-25T04:08:22;98733.31;;;1.27;100.00
80927;BME280;70385;44.538;18.532;2024-03-25T04:10:48;98737.75;;;1.18;100.00
80927;BME280;70385;44.538;18.532;2024-03-25T04:13:14;98747.25;;;1.13;100.00
80927;BME280;70385;44.538;18.532;2024-03-25T04:15:41;98755.25;;;0.98;100.00
80927;BME280;70385;44.538;18.532;2024-03-25T04:18:08;98761.22;;;1.02;100.00
80927;BME280;70385;44.538;18.532;2024-03-25T04:20:39;98754.47;;;0.93;100.00
80927;BME280;70385;44.538;18.532;2024-03-25T04:23:05;98758.00;;;0.87;100.00
80927;BME280;70385;44.538;18.532;2024-03-25T04:25:35;98755.56;;;0.78;100.00
80927;BME280;70385;44.538;18.532;2024-03-25T04:28:07;98766.69;;;0.82;100.00
80927;BME280;70385;44.538;18.532;2024-03-25T04:30:33;98770.78;;;0.94;100.00
80927;BME280;70385;44.538;18.532;2024-03-25T04:33:00;98772.41;;;1.01;100.00
80927;BME280;70385;44.538;18.532;2024-03-25T04:35:26;98772.34;;;1.04;100.00
80927;BME280;70385;44.538;18.532;2024-03-25T04:37:53;98779.94;;;1.11;100.00
80927;BME280;70385;44.538;18.532;2024-03-25T04:40:21;98773.88;;;1.14;100.00
80927;BME280;70385;44.538;18.532;2024-03-25T04:42:48;98773.06;;;1.12;100.00
80927;BME280;70385;44.538;18.532;2024-03-25T04:45:14;98776.53;;;1.09;100.00
80927;BME280;70385;44.538;18.532;2024-03-25T04:47:43;98779.09;;;1.11;100.00
80927;BME280;70385;44.538;18.532;2024-03-25T04:50:09;98787.78;;;1.04;100.00
80927;BME280;70385;44.538;18.532;2024-03-25T04:52:35;98800.53;;;1.13;100.00
80927;BME280;70385;44.538;18.532;2024-03-25T04:55:01;98795.50;;;1.05;100.00
80927;BME280;70385;44.538;18.532;2024-03-25T04:57:28;98791.09;;;1.12;100.00
80927;BME280;70385;44.538;18.532;2024-03-25T04:59:54;98800.56;;;1.10;100.00
80927;BME280;70385;44.538;18.532;2024-03-25T05:02:20;98797.03;;;1.18;100.00
80927;BME280;70385;44.538;18.532;2024-03-25T05:04:46;98791.00;;;1.19;100.00
80927;BME280;70385;44.538;18.532;2024-03-25T05:07:12;98790.16;;;1.17;100.00
80927;BME280;70385;44.538;18.532;2024-03-25T05:09:37;98805.50;;;1.24;100.00
80927;BME280;70385;44.538;18.532;2024-03-25T05:12:04;98798.63;;;1.24;100.00
80927;BME280;70385;44.538;18.532;2024-03-25T05:14:30;98809.03;;;1.19;100.00
80927;BME280;70385;44.538;18.532;2024-03-25T05:16:56;98816.56;;;1.30;100.00
80927;BME280;70385;44.538;18.532;2024-03-25T05:19:22;98818.13;;;1.40;100.00
80927;BME280;70385;44.538;18.532;2024-03-25T05:21:48;98815.41;;;1.48;100.00
80927;BME280;70385;44.538;18.532;2024-03-25T05:24:14;98817.97;;;1.49;100.00
80927;BME280;70385;44.538;18.532;2024-03-25T05:26:40;98812.69;;;1.57;100.00
80927;BME280;70385;44.538;18.532;2024-03-25T05:29:06;98811.84;;;1.57;100.00
80927;BME280;70385;44.538;18.532;2024-03-25T05:31:35;98814.22;;;1.67;100.00
80927;BME280;70385;44.538;18.532;2024-03-25T05:34:01;98816.66;;;1.76;100.00
80927;BME280;70385;44.538;18.532;2024-03-25T05:36:28;98817.25;;;1.89;100.00
80927;BME280;70385;44.538;18.532;2024-03-25T05:38:54;98823.19;;;1.93;100.00
80927;BME280;70385;44.538;18.532;2024-03-25T05:41:25;98830.97;;;1.91;100.00
80927;BME280;70385;44.538;18.532;2024-03-25T05:43:51;98832.66;;;1.95;100.00
80927;BME280;70385;44.538;18.532;2024-03-25T05:46:18;98841.41;;;1.85;100.00
80927;BME280;70385;44.538;18.532;2024-03-25T05:48:44;98845.03;;;1.76;100.00
80927;BME280;70385;44.538;18.532;2024-03-25T05:51:10;98842.25;;;1.86;100.00
80927;BME280;70385;44.538;18.532;2024-03-25T05:53:36;98856.88;;;1.85;100.00
80927;BME280;70385;44.538;18.532;2024-03-25T05:56:03;98850.69;;;1.95;100.00
80927;BME280;70385;44.538;18.532;2024-03-25T05:58:29;98847.31;;;1.92;100.00
80927;BME280;70385;44.538;18.532;2024-03-25T06:00:56;98855.88;;;1.95;100.00
80927;BME280;70385;44.538;18.532;2024-03-25T06:03:22;98863.88;;;1.80;100.00
80927;BME280;70385;44.538;18.532;2024-03-25T06:05:48;98852.56;;;1.87;100.00
80927;BME280;70385;44.538;18.532;2024-03-25T06:08:17;98868.25;;;1.75;100.00
80927;BME280;70385;44.538;18.532;2024-03-25T06:11:03;98867.28;;;1.82;100.00
80927;BME280;70385;44.538;18.532;2024-03-25T06:13:29;98874.38;;;1.68;100.00
80927;BME280;70385;44.538;18.532;2024-03-25T06:15:57;98868.78;;;1.92;100.00
80927;BME280;70385;44.538;18.532;2024-03-25T06:18:25;98874.75;;;1.97;100.00
80927;BME280;70385;44.538;18.532;2024-03-25T06:21:20;98879.09;;;1.95;100.00
80927;BME280;70385;44.538;18.532;2024-03-25T06:24:18;98881.34;;;2.13;100.00
80927;BME280;70385;44.538;18.532;2024-03-25T06:27:20;98877.91;;;2.11;100.00
80927;BME280;70385;44.538;18.532;2024-03-25T06:30:13;98880.25;;;2.24;100.00
80927;BME280;70385;44.538;18.532;2024-03-25T06:32:58;98868.19;;;2.26;100.00
80927;BME280;70385;44.538;18.532;2024-03-25T06:35:43;98892.78;;;2.43;100.00
80927;BME280;70385;44.538;18.532;2024-03-25T06:38:10;98887.84;;;2.31;100.00
80927;BME280;70385;44.538;18.532;2024-03-25T06:40:36;98895.69;;;2.27;100.00
80927;BME280;70385;44.538;18.532;2024-03-25T06:43:03;98886.53;;;2.10;100.00
80927;BME280;70385;44.538;18.532;2024-03-25T06:45:29;98889.31;;;2.44;100.00
80927;BME280;70385;44.538;18.532;2024-03-25T06:47:55;98891.19;;;2.38;100.00
80927;BME280;70385;44.538;18.532;2024-03-25T06:50:24;98891.09;;;2.42;100.00
80927;BME280;70385;44.538;18.532;2024-03-25T06:52:52;98889.59;;;2.31;100.00
80927;BME280;70385;44.538;18.532;2024-03-25T06:55:19;98888.16;;;2.61;100.00
80927;BME280;70385;44.538;18.532;2024-03-25T06:57:49;98878.53;;;2.67;100.00
80927;BME280;70385;44.538;18.532;2024-03-25T07:00:19;98880.13;;;2.74;100.00
80927;BME280;70385;44.538;18.532;2024-03-25T07:02:56;98873.78;;;2.88;100.00
80927;BME280;70385;44.538;18.532;2024-03-25T07:05:23;98892.22;;;3.13;100.00
80927;BME280;70385;44.538;18.532;2024-03-25T07:07:51;98890.94;;;2.92;100.00
80927;BME280;70385;44.538;18.532;2024-03-25T07:10:17;98886.53;;;3.35;100.00
80927;BME280;70385;44.538;18.532;2024-03-25T07:12:45;98893.94;;;3.51;100.00
80927;BME280;70385;44.538;18.532;2024-03-25T07:15:14;98895.53;;;3.90;100.00
80927;BME280;70385;44.538;18.532;2024-03-25T07:17:43;98905.50;;;4.06;100.00
80927;BME280;70385;44.538;18.532;2024-03-25T07:20:09;98902.97;;;4.03;100.00
80927;BME280;70385;44.538;18.532;2024-03-25T07:22:36;98892.59;;;3.70;100.00
80927;BME280;70385;44.538;18.532;2024-03-25T07:25:04;98890.66;;;4.12;100.00
80927;BME280;70385;44.538;18.532;2024-03-25T07:27:30;98905.84;;;3.56;100.00
80927;BME280;70385;44.538;18.532;2024-03-25T07:29:59;98896.06;;;3.69;100.00
80927;BME280;70385;44.538;18.532;2024-03-25T07:32:25;98898.59;;;3.72;100.00
80927;BME280;70385;44.538;18.532;2024-03-25T07:34:51;98908.78;;;3.78;100.00
80927;BME280;70385;44.538;18.532;2024-03-25T07:37:17;98914.22;;;3.68;100.00
80927;BME280;70385;44.538;18.532;2024-03-25T07:39:46;98913.06;;;4.13;100.00
80927;BME280;70385;44.538;18.532;2024-03-25T07:42:12;98908.97;;;4.37;100.00
80927;BME280;70385;44.538;18.532;2024-03-25T07:44:40;98909.78;;;4.39;100.00
80927;BME280;70385;44.538;18.532;2024-03-25T07:47:06;98908.44;;;4.57;100.00
80927;BME280;70385;44.538;18.532;2024-03-25T07:49:33;98912.84;;;4.84;100.00
80927;BME280;70385;44.538;18.532;2024-03-25T07:52:05;98921.56;;;4.51;100.00
80927;BME280;70385;44.538;18.532;2024-03-25T07:54:32;98923.72;;;4.66;100.00
80927;BME280;70385;44.538;18.532;2024-03-25T07:57:06;98915.81;;;4.71;100.00
80927;BME280;70385;44.538;18.532;2024-03-25T07:59:35;98920.03;;;4.75;100.00
80927;BME280;70385;44.538;18.532;2024-03-25T08:02:02;98921.34;;;4.58;100.00
80927;BME280;70385;44.538;18.532;2024-03-25T08:04:40;98924.91;;;4.54;100.00
80927;BME280;70385;44.538;18.532;2024-03-25T08:07:06;98930.38;;;5.06;100.00
80927;BME280;70385;44.538;18.532;2024-03-25T08:09:33;98919.97;;;5.63;100.00
80927;BME280;70385;44.538;18.532;2024-03-25T08:11:59;98919.31;;;5.83;100.00
80927;BME280;70385;44.538;18.532;2024-03-25T08:14:25;98916.91;;;6.05;100.00
80927;BME280;70385;44.538;18.532;2024-03-25T08:16:53;98920.88;;;6.15;100.00
80927;BME280;70385;44.538;18.532;2024-03-25T08:19:39;98910.97;;;6.26;100.00
80927;BME280;70385;44.538;18.532;2024-03-25T08:22:09;98916.38;;;6.45;100.00
80927;BME280;70385;44.538;18.532;2024-03-25T08:24:36;98899.22;;;6.64;100.00
80927;BME280;70385;44.538;18.532;2024-03-25T08:27:03;98901.47;;;6.74;100.00
80927;BME280;70385;44.538;18.532;2024-03-25T08:29:31;98902.00;;;6.60;100.00
80927;BME280;70385;44.538;18.532;2024-03-25T08:31:57;98910.63;;;6.35;100.00
80927;BME280;70385;44.538;18.532;2024-03-25T08:34:23;98916.50;;;6.42;100.00
80927;BME280;70385;44.538;18.532;2024-03-25T08:36:49;98912.44;;;6.33;100.00
80927;BME280;70385;44.538;18.532;2024-03-25T08:39:24;98918.50;;;6.59;100.00
80927;BME280;70385;44.538;18.532;2024-03-25T08:41:50;98914.47;;;6.25;100.00
80927;BME280;70385;44.538;18.532;2024-03-25T08:44:22;98914.81;;;6.15;100.00
80927;BME280;70385;44.538;18.532;2024-03-25T08:46:51;98916.56;;;6.14;100.00
80927;BME280;70385;44.538;18.532;2024-03-25T08:49:19;98925.44;;;6.58;100.00
80927;BME280;70385;44.538;18.532;2024-03-25T08:51:45;98912.09;;;6.67;100.00
80927;BME280;70385;44.538;18.532;2024-03-25T08:54:19;98922.56;;;6.66;100.00
80927;BME280;70385;44.538;18.532;2024-03-25T08:56:45;98901.28;;;6.55;100.00
80927;BME280;70385;44.538;18.532;2024-03-25T08:59:11;98911.44;;;6.86;100.00
80927;BME280;70385;44.538;18.532;2024-03-25T09:01:39;98904.72;;;7.04;100.00
80927;BME280;70385;44.538;18.532;2024-03-25T09:04:05;98896.19;;;7.22;100.00
80927;BME280;70385;44.538;18.532;2024-03-25T09:06:31;98901.72;;;7.36;100.00
80927;BME280;70385;44.538;18.532;2024-03-25T09:08:57;98904.88;;;7.44;100.00
80927;BME280;70385;44.538;18.532;2024-03-25T09:11:41;98905.03;;;7.83;100.00
80927;BME280;70385;44.538;18.532;2024-03-25T09:14:07;98896.84;;;7.71;100.00
80927;BME280;70385;44.538;18.532;2024-03-25T09:16:33;98909.16;;;8.09;100.00
80927;BME280;70385;44.538;18.532;2024-03-25T09:18:58;98901.66;;;7.59;100.00
80927;BME280;70385;44.538;18.532;2024-03-25T09:21:25;98906.16;;;7.98;100.00
80927;BME280;70385;44.538;18.532;2024-03-25T09:23:52;98898.50;;;8.56;100.00
80927;BME280;70385;44.538;18.532;2024-03-25T09:26:18;98900.19;;;8.57;100.00
80927;BME280;70385;44.538;18.532;2024-03-25T09:28:44;98895.97;;;8.55;100.00
80927;BME280;70385;44.538;18.532;2024-03-25T09:31:10;98890.50;;;9.17;100.00
80927;BME280;70385;44.538;18.532;2024-03-25T09:33:37;98886.63;;;9.62;100.00
80927;BME280;70385;44.538;18.532;2024-03-25T09:36:05;98893.47;;;9.47;100.00
80927;BME280;70385;44.538;18.532;2024-03-25T09:38:31;98888.88;;;9.69;100.00
80927;BME280;70385;44.538;18.532;2024-03-25T09:40:57;98884.72;;;9.48;100.00
80927;BME280;70385;44.538;18.532;2024-03-25T09:43:44;98883.41;;;9.57;100.00
80927;BME280;70385;44.538;18.532;2024-03-25T09:46:23;98885.28;;;9.72;100.00
80927;BME280;70385;44.538;18.532;2024-03-25T09:48:55;98888.94;;;9.51;100.00
80927;BME280;70385;44.538;18.532;2024-03-25T09:51:22;98874.44;;;9.26;100.00
80927;BME280;70385;44.538;18.532;2024-03-25T09:53:48;98871.91;;;9.78;100.00
80927;BME280;70385;44.538;18.532;2024-03-25T09:56:16;98873.19;;;10.23;99.59
80927;BME280;70385;44.538;18.532;2024-03-25T09:58:43;98858.00;;;10.47;92.38
80927;BME280;70385;44.538;18.532;2024-03-25T10:01:10;98858.59;;;10.52;93.88
80927;BME280;70385;44.538;18.532;2024-03-25T10:03:36;98851.25;;;10.58;89.31
80927;BME280;70385;44.538;18.532;2024-03-25T10:06:02;98851.44;;;11.04;85.45
80927;BME280;70385;44.538;18.532;2024-03-25T10:08:32;98844.81;;;11.29;84.96
80927;BME280;70385;44.538;18.532;2024-03-25T10:10:58;98847.34;;;11.46;80.00
80927;BME280;70385;44.538;18.532;2024-03-25T10:13:27;98840.59;;;11.42;79.54
80927;BME280;70385;44.538;18.532;2024-03-25T10:15:58;98846.22;;;11.81;75.70
80927;BME280;70385;44.538;18.532;2024-03-25T10:18:26;98833.78;;;11.85;72.29
80927;BME280;70385;44.538;18.532;2024-03-25T10:20:53;98834.81;;;11.51;74.60
80927;BME280;70385;44.538;18.532;2024-03-25T10:23:25;98825.34;;;11.80;72.02
80927;BME280;70385;44.538;18.532;2024-03-25T10:25:53;98828.84;;;12.09;71.85
80927;BME280;70385;44.538;18.532;2024-03-25T10:28:19;98833.78;;;11.69;66.45
80927;BME280;70385;44.538;18.532;2024-03-25T10:30:47;98818.47;;;11.77;66.23
80927;BME280;70385;44.538;18.532;2024-03-25T10:33:17;98810.84;;;11.89;60.11
80927;BME280;70385;44.538;18.532;2024-03-25T10:35:44;98816.63;;;12.38;57.02
80927;BME280;70385;44.538;18.532;2024-03-25T10:38:18;98818.88;;;12.58;55.90
80927;BME280;70385;44.538;18.532;2024-03-25T10:40:45;98821.97;;;12.65;56.28
80927;BME280;70385;44.538;18.532;2024-03-25T10:43:12;98811.19;;;12.41;56.86
80927;BME280;70385;44.538;18.532;2024-03-25T10:45:48;98808.66;;;12.25;55.42
80927;BME280;70385;44.538;18.532;2024-03-25T10:48:15;98813.53;;;12.45;57.38
80927;BME280;70385;44.538;18.532;2024-03-25T10:50:43;98807.81;;;12.39;54.00
80927;BME280;70385;44.538;18.532;2024-03-25T10:53:10;98803.56;;;12.93;53.79
80927;BME280;70385;44.538;18.532;2024-03-25T10:55:47;98803.63;;;12.92;53.45
80927;BME280;70385;44.538;18.532;2024-03-25T10:58:23;98803.56;;;12.93;47.79
80927;BME280;70385;44.538;18.532;2024-03-25T11:00:51;98810.72;;;12.63;49.12
80927;BME280;70385;44.538;18.532;2024-03-25T11:03:18;98813.22;;;12.93;48.44
80927;BME280;70385;44.538;18.532;2024-03-25T11:05:50;98803.28;;;12.84;48.56
80927;BME280;70385;44.538;18.532;2024-03-25T11:08:17;98805.91;;;12.98;47.74
80927;BME280;70385;44.538;18.532;2024-03-25T11:10:45;98791.75;;;12.86;48.50
80927;BME280;70385;44.538;18.532;2024-03-25T11:13:33;98797.69;;;13.31;46.09
80927;BME280;70385;44.538;18.532;2024-03-25T11:16:00;98784.84;;;13.12;43.78
80927;BME280;70385;44.538;18.532;2024-03-25T11:18:29;98794.53;;;13.39;44.32
80927;BME280;70385;44.538;18.532;2024-03-25T11:21:06;98772.56;;;13.40;44.50
80927;BME280;70385;44.538;18.532;2024-03-25T11:23:41;98776.22;;;13.64;47.32
80927;BME280;70385;44.538;18.532;2024-03-25T11:26:22;98770.69;;;14.19;47.07
80927;BME280;70385;44.538;18.532;2024-03-25T11:28:53;98771.63;;;13.93;42.86
80927;BME280;70385;44.538;18.532;2024-03-25T11:31:21;98765.03;;;14.13;42.04
80927;BME280;70385;44.538;18.532;2024-03-25T11:33:50;98776.09;;;13.65;43.02
80927;BME280;70385;44.538;18.532;2024-03-25T11:36:16;98777.28;;;13.87;42.54
80927;BME280;70385;44.538;18.532;2024-03-25T11:38:59;98768.78;;;13.96;39.04
80927;BME280;70385;44.538;18.532;2024-03-25T11:41:28;98758.28;;;13.96;36.58
80927;BME280;70385;44.538;18.532;2024-03-25T11:43:55;98754.69;;;13.97;37.22
80927;BME280;70385;44.538;18.532;2024-03-25T11:46:24;98764.34;;;13.84;36.23
80927;BME280;70385;44.538;18.532;2024-03-25T11:48:51;98751.53;;;14.30;35.64
80927;BME280;70385;44.538;18.532;2024-03-25T11:51:19;98750.03;;;14.39;33.63
80927;BME280;70385;44.538;18.532;2024-03-25T11:53:46;98757.22;;;14.11;31.69
80927;BME280;70385;44.538;18.532;2024-03-25T11:56:14;98748.69;;;14.46;34.93
80927;BME280;70385;44.538;18.532;2024-03-25T11:58:40;98758.88;;;13.74;28.43
80927;BME280;70385;44.538;18.532;2024-03-25T12:01:07;98744.66;;;13.51;29.29
80927;BME280;70385;44.538;18.532;2024-03-25T12:03:35;98739.97;;;13.94;30.64
80927;BME280;70385;44.538;18.532;2024-03-25T12:06:04;98740.13;;;13.66;30.81
80927;BME280;70385;44.538;18.532;2024-03-25T12:08:31;98736.88;;;13.62;29.82
80927;BME280;70385;44.538;18.532;2024-03-25T12:13:53;98737.03;;;13.99;27.99
80927;BME280;70385;44.538;18.532;2024-03-25T12:16:20;98736.81;;;14.27;30.41
80927;BME280;70385;44.538;18.532;2024-03-25T12:18:47;98735.75;;;14.30;28.09
80927;BME280;70385;44.538;18.532;2024-03-25T12:21:17;98742.91;;;13.90;27.99
80927;BME280;70385;44.538;18.532;2024-03-25T12:23:45;98740.38;;;14.52;31.19
80927;BME280;70385;44.538;18.532;2024-03-25T12:26:13;98737.44;;;14.18;27.93
80927;BME280;70385;44.538;18.532;2024-03-25T12:28:42;98736.19;;;13.98;28.48
80927;BME280;70385;44.538;18.532;2024-03-25T12:31:09;98749.34;;;14.11;26.75
80927;BME280;70385;44.538;18.532;2024-03-25T12:33:47;98750.03;;;13.62;28.63
80927;BME280;70385;44.538;18.532;2024-03-25T12:36:14;98733.09;;;13.54;27.77
80927;BME280;70385;44.538;18.532;2024-03-25T12:38:41;98733.38;;;13.49;28.49
80927;BME280;70385;44.538;18.532;2024-03-25T12:41:10;98728.91;;;13.77;31.78
80927;BME280;70385;44.538;18.532;2024-03-25T12:43:45;98730.28;;;14.20;31.29
80927;BME280;70385;44.538;18.532;2024-03-25T12:46:11;98725.97;;;14.19;31.81
80927;BME280;70385;44.538;18.532;2024-03-25T12:48:40;98722.56;;;14.92;35.51
80927;BME280;70385;44.538;18.532;2024-03-25T12:51:17;98723.63;;;14.40;31.42
80927;BME280;70385;44.538;18.532;2024-03-25T12:53:43;98717.19;;;14.57;32.12
80927;BME280;70385;44.538;18.532;2024-03-25T12:56:09;98715.25;;;15.19;34.34
80927;BME280;70385;44.538;18.532;2024-03-25T12:58:35;98713.38;;;15.57;34.32